sensor_id;sensor_type;location;lat;lon;timestamp;temperature;humidity
15298;DHT22;7750;48.796;9.026;2023-10-31T00:01:17;15.30;82.00
15298;DHT22;7750;48.796;9.026;2023-10-31T00:06:18;15.30;82.30
15298;DHT22;7750;48.796;9.026;2023-10-31T00:11:19;15.30;83.10
15298;DHT22;7750;48.796;9.026;2023-10-31T00:16:19;15.20;82.80
15298;DHT22;7750;48.796;9.026;2023-10-31T00:21:20;15.20;82.90
15298;DHT22;7750;48.796;9.026;2023-10-31T00:26:20;15.20;83.00
15298;DHT22;7750;48.796;9.026;2023-10-31T00:31:21;15.10;83.00
15298;DHT22;7750;48.796;9.026;2023-10-31T00:36:22;15.10;83.20
15298;DHT22;7750;48.796;9.026;2023-10-31T00:41:22;15.10;83.30
15298;DHT22;7750;48.796;9.026;2023-10-31T00:46:24;15.10;83.20
15298;DHT22;7750;48.796;9.026;2023-10-31T00:51:25;15.10;82.70
15298;DHT22;7750;48.796;9.026;2023-10-31T00:56:26;15.00;82.10
15298;DHT22;7750;48.796;9.026;2023-10-31T01:01:26;15.00;80.50
15298;DHT22;7750;48.796;9.026;2023-10-31T01:06:27;14.90;79.60
15298;DHT22;7750;48.796;9.026;2023-10-31T01:11:27;14.80;79.70
15298;DHT22;7750;48.796;9.026;2023-10-31T01:16:28;14.80;79.30
15298;DHT22;7750;48.796;9.026;2023-10-31T01:21:29;14.70;79.10
15298;DHT22;7750;48.796;9.026;2023-10-31T01:26:29;14.60;79.00
15298;DHT22;7750;48.796;9.026;2023-10-31T01:31:30;14.50;79.00
15298;DHT22;7750;48.796;9.026;2023-10-31T01:36:30;14.40;78.70
15298;DHT22;7750;48.796;9.026;2023-10-31T01:41:31;14.30;78.70
15298;DHT22;7750;48.796;9.026;2023-10-31T01:46:31;14.20;79.00
15298;DHT22;7750;48.796;9.026;2023-10-31T01:51:32;14.20;79.40
15298;DHT22;7750;48.796;9.026;2023-10-31T01:56:33;14.20;79.70
15298;DHT22;7750;48.796;9.026;2023-10-31T02:01:38;14.20;79.80
15298;DHT22;7750;48.796;9.026;2023-10-31T02:06:38;14.10;79.70
15298;DHT22;7750;48.796;9.026;2023-10-31T02:11:39;14.10;79.50
15298;DHT22;7750;48.796;9.026;2023-10-31T02:16:39;14.10;79.70
15298;DHT22;7750;48.796;9.026;2023-10-31T02:21:40;14.10;79.70
15298;DHT22;7750;48.796;9.026;2023-10-31T02:26:41;14.00;79.60
15298;DHT22;7750;48.796;9.026;2023-10-31T02:31:41;14.00;79.70
15298;DHT22;7750;48.796;9.026;2023-10-31T02:36:42;14.10;79.90
15298;DHT22;7750;48.796;9.026;2023-10-31T02:41:42;14.10;80.10
15298;DHT22;7750;48.796;9.026;2023-10-31T02:46:43;14.10;79.90
15298;DHT22;7750;48.796;9.026;2023-10-31T02:51:44;14.10;79.50
15298;DHT22;7750;48.796;9.026;2023-10-31T02:56:45;14.10;79.30
15298;DHT22;7750;48.796;9.026;2023-10-31T03:01:45;14.10;79.80
15298;DHT22;7750;48.796;9.026;2023-10-31T03:06:46;14.10;79.10
15298;DHT22;7750;48.796;9.026;2023-10-31T03:11:46;14.10;79.20
15298;DHT22;7750;48.796;9.026;2023-10-31T03:16:47;14.10;79.20
15298;DHT22;7750;48.796;9.026;2023-10-31T03:21:48;14.10;79.20
15298;DHT22;7750;48.796;9.026;2023-10-31T03:26:48;14.10;79.20
15298;DHT22;7750;48.796;9.026;2023-10-31T03:31:49;14.10;79.30
15298;DHT22;7750;48.796;9.026;2023-10-31T03:36:49;14.10;79.30
15298;DHT22;7750;48.796;9.026;2023-10-31T03:41:50;14.10;79.20
15298;DHT22;7750;48.796;9.026;2023-10-31T03:46:51;14.00;78.90
15298;DHT22;7750;48.796;9.026;2023-10-31T03:51:51;14.10;78.90
15298;DHT22;7750;48.796;9.026;2023-10-31T03:56:52;14.10;79.20
15298;DHT22;7750;48.796;9.026;2023-10-31T04:01:54;14.10;79.20
15298;DHT22;7750;48.796;9.026;2023-10-31T04:06:54;14.10;79.30
15298;DHT22;7750;48.796;9.026;2023-10-31T04:11:55;14.10;79.40
15298;DHT22;7750;48.796;9.026;2023-10-31T04:16:56;14.00;79.40
15298;DHT22;7750;48.796;9.026;2023-10-31T04:21:56;14.00;79.40
15298;DHT22;7750;48.796;9.026;2023-10-31T04:26:57;14.00;79.10
15298;DHT22;7750;48.796;9.026;2023-10-31T04:31:57;13.90;78.20
15298;DHT22;7750;48.796;9.026;2023-10-31T04:36:58;13.80;78.30
15298;DHT22;7750;48.796;9.026;2023-10-31T04:41:59;13.70;77.80
15298;DHT22;7750;48.796;9.026;2023-10-31T04:46:59;13.60;77.20
15298;DHT22;7750;48.796;9.026;2023-10-31T04:52:00;13.60;77.60
15298;DHT22;7750;48.796;9.026;2023-10-31T04:57:00;13.60;77.70
15298;DHT22;7750;48.796;9.026;2023-10-31T05:02:01;13.50;77.60
15298;DHT22;7750;48.796;9.026;2023-10-31T05:07:02;13.50;77.90
15298;DHT22;7750;48.796;9.026;2023-10-31T05:12:03;13.40;78.00
15298;DHT22;7750;48.796;9.026;2023-10-31T05:17:03;13.40;78.20
15298;DHT22;7750;48.796;9.026;2023-10-31T05:22:04;13.40;78.30
15298;DHT22;7750;48.796;9.026;2023-10-31T05:27:05;13.40;78.20
15298;DHT22;7750;48.796;9.026;2023-10-31T05:32:08;13.40;78.20
15298;DHT22;7750;48.796;9.026;2023-10-31T05:37:09;13.30;78.10
15298;DHT22;7750;48.796;9.026;2023-10-31T05:42:09;13.30;78.10
15298;DHT22;7750;48.796;9.026;2023-10-31T05:47:10;13.30;78.10
15298;DHT22;7750;48.796;9.026;2023-10-31T05:52:11;13.30;78.00
15298;DHT22;7750;48.796;9.026;2023-10-31T05:57:11;13.30;77.70
15298;DHT22;7750;48.796;9.026;2023-10-31T06:02:16;13.20;77.60
15298;DHT22;7750;48.796;9.026;2023-10-31T06:07:16;13.20;78.20
15298;DHT22;7750;48.796;9.026;2023-10-31T06:12:17;13.10;77.30
15298;DHT22;7750;48.796;9.026;2023-10-31T06:17:17;13.10;77.10
15298;DHT22;7750;48.796;9.026;2023-10-31T06:22:18;13.10;77.00
15298;DHT22;7750;48.796;9.026;2023-10-31T06:27:19;13.10;76.90
15298;DHT22;7750;48.796;9.026;2023-10-31T06:32:19;13.10;76.90
15298;DHT22;7750;48.796;9.026;2023-10-31T06:37:20;13.20;76.50
15298;DHT22;7750;48.796;9.026;2023-10-31T06:42:20;13.20;76.40
15298;DHT22;7750;48.796;9.026;2023-10-31T06:47:21;13.20;76.30
15298;DHT22;7750;48.796;9.026;2023-10-31T06:52:21;13.20;76.40
15298;DHT22;7750;48.796;9.026;2023-10-31T06:57:22;13.30;76.80
15298;DHT22;7750;48.796;9.026;2023-10-31T07:02:22;13.20;76.60
15298;DHT22;7750;48.796;9.026;2023-10-31T07:07:23;13.30;76.90
15298;DHT22;7750;48.796;9.026;2023-10-31T07:12:24;13.30;76.80
15298;DHT22;7750;48.796;9.026;2023-10-31T07:17:27;13.30;77.10
15298;DHT22;7750;48.796;9.026;2023-10-31T07:22:28;13.30;77.10
15298;DHT22;7750;48.796;9.026;2023-10-31T07:27:29;13.30;77.00
15298;DHT22;7750;48.796;9.026;2023-10-31T07:32:30;13.40;77.80
15298;DHT22;7750;48.796;9.026;2023-10-31T07:37:30;13.40;77.10
15298;DHT22;7750;48.796;9.026;2023-10-31T07:42:31;13.40;76.90
15298;DHT22;7750;48.796;9.026;2023-10-31T07:47:31;13.40;77.10
15298;DHT22;7750;48.796;9.026;2023-10-31T07:52:33;13.50;77.40
15298;DHT22;7750;48.796;9.026;2023-10-31T07:57:33;13.60;76.90
15298;DHT22;7750;48.796;9.026;2023-10-31T08:02:34;13.60;77.10
15298;DHT22;7750;48.796;9.026;2023-10-31T08:07:34;13.70;77.70
15298;DHT22;7750;48.796;9.026;2023-10-31T08:12:35;13.70;77.10
15298;DHT22;7750;48.796;9.026;2023-10-31T08:17:36;13.80;77.00
15298;DHT22;7750;48.796;9.026;2023-10-31T08:22:36;13.80;76.90
15298;DHT22;7750;48.796;9.026;2023-10-31T08:27:37;13.90;77.30
15298;DHT22;7750;48.796;9.026;2023-10-31T08:32:38;14.00;76.80
15298;DHT22;7750;48.796;9.026;2023-10-31T08:37:39;14.00;76.70
15298;DHT22;7750;48.796;9.026;2023-10-31T08:42:39;14.10;76.30
15298;DHT22;7750;48.796;9.026;2023-10-31T08:47:40;14.20;75.50
15298;DHT22;7750;48.796;9.026;2023-10-31T08:52:40;14.20;75.40
15298;DHT22;7750;48.796;9.026;2023-10-31T08:57:41;14.30;75.30
15298;DHT22;7750;48.796;9.026;2023-10-31T09:02:42;14.40;75.40
15298;DHT22;7750;48.796;9.026;2023-10-31T09:07:43;14.40;74.60
15298;DHT22;7750;48.796;9.026;2023-10-31T09:12:44;14.40;74.60
15298;DHT22;7750;48.796;9.026;2023-10-31T09:17:46;14.50;73.90
15298;DHT22;7750;48.796;9.026;2023-10-31T09:22:48;14.50;74.50
15298;DHT22;7750;48.796;9.026;2023-10-31T09:27:49;14.60;74.90
15298;DHT22;7750;48.796;9.026;2023-10-31T09:32:50;14.70;74.50
15298;DHT22;7750;48.796;9.026;2023-10-31T09:37:51;14.80;74.80
15298;DHT22;7750;48.796;9.026;2023-10-31T09:42:52;14.90;74.40
15298;DHT22;7750;48.796;9.026;2023-10-31T09:47:53;15.10;74.50
15298;DHT22;7750;48.796;9.026;2023-10-31T09:52:55;15.20;73.70
15298;DHT22;7750;48.796;9.026;2023-10-31T09:57:56;15.40;73.10
15298;DHT22;7750;48.796;9.026;2023-10-31T10:02:58;15.40;73.40
15298;DHT22;7750;48.796;9.026;2023-10-31T10:07:59;15.50;72.60
15298;DHT22;7750;48.796;9.026;2023-10-31T10:13:00;15.40;72.00
15298;DHT22;7750;48.796;9.026;2023-10-31T10:18:03;15.40;71.50
15298;DHT22;7750;48.796;9.026;2023-10-31T10:23:04;15.40;71.90
15298;DHT22;7750;48.796;9.026;2023-10-31T10:28:07;15.40;71.80
15298;DHT22;7750;48.796;9.026;2023-10-31T10:33:13;15.40;72.30
15298;DHT22;7750;48.796;9.026;2023-10-31T10:38:15;15.30;72.90
15298;DHT22;7750;48.796;9.026;2023-10-31T10:43:26;15.30;71.90
15298;DHT22;7750;48.796;9.026;2023-10-31T10:48:27;15.30;72.00
15298;DHT22;7750;48.796;9.026;2023-10-31T10:53:36;15.30;72.80
15298;DHT22;7750;48.796;9.026;2023-10-31T10:58:51;15.30;72.60
15298;DHT22;7750;48.796;9.026;2023-10-31T11:03:55;15.40;72.60
15298;DHT22;7750;48.796;9.026;2023-10-31T11:08:56;15.40;72.60
15298;DHT22;7750;48.796;9.026;2023-10-31T11:13:58;15.50;72.90
15298;DHT22;7750;48.796;9.026;2023-10-31T11:19:03;15.50;71.90
15298;DHT22;7750;48.796;9.026;2023-10-31T11:24:06;15.50;72.00
15298;DHT22;7750;48.796;9.026;2023-10-31T11:29:07;15.60;72.20
15298;DHT22;7750;48.796;9.026;2023-10-31T11:34:09;15.60;72.00
15298;DHT22;7750;48.796;9.026;2023-10-31T11:39:14;15.70;72.00
15298;DHT22;7750;48.796;9.026;2023-10-31T11:44:16;15.80;72.40
15298;DHT22;7750;48.796;9.026;2023-10-31T11:49:18;15.80;71.70
15298;DHT22;7750;48.796;9.026;2023-10-31T11:54:38;15.90;71.40
15298;DHT22;7750;48.796;9.026;2023-10-31T11:59:39;15.90;71.30
15298;DHT22;7750;48.796;9.026;2023-10-31T12:04:40;16.00;71.60
15298;DHT22;7750;48.796;9.026;2023-10-31T12:09:47;16.00;71.40
15298;DHT22;7750;48.796;9.026;2023-10-31T12:14:48;16.10;70.40
15298;DHT22;7750;48.796;9.026;2023-10-31T12:19:49;16.10;70.90
15298;DHT22;7750;48.796;9.026;2023-10-31T12:25:05;16.20;71.10
15298;DHT22;7750;48.796;9.026;2023-10-31T12:30:07;16.20;69.00
15298;DHT22;7750;48.796;9.026;2023-10-31T12:35:14;16.30;69.20
15298;DHT22;7750;48.796;9.026;2023-10-31T12:40:18;16.30;68.80
15298;DHT22;7750;48.796;9.026;2023-10-31T12:45:20;16.30;69.20
15298;DHT22;7750;48.796;9.026;2023-10-31T12:50:22;16.30;68.60
15298;DHT22;7750;48.796;9.026;2023-10-31T12:55:25;16.30;68.40
15298;DHT22;7750;48.796;9.026;2023-10-31T13:00:33;16.20;68.90
15298;DHT22;7750;48.796;9.026;2023-10-31T13:05:35;16.30;69.20
15298;DHT22;7750;48.796;9.026;2023-10-31T13:10:44;16.30;69.70
15298;DHT22;7750;48.796;9.026;2023-10-31T13:15:44;16.40;69.50
15298;DHT22;7750;48.796;9.026;2023-10-31T13:20:45;16.50;69.20
15298;DHT22;7750;48.796;9.026;2023-10-31T13:25:46;16.50;68.60
15298;DHT22;7750;48.796;9.026;2023-10-31T13:30:46;16.50;68.40
15298;DHT22;7750;48.796;9.026;2023-10-31T13:35:48;16.50;68.70
15298;DHT22;7750;48.796;9.026;2023-10-31T13:40:49;16.50;68.50
15298;DHT22;7750;48.796;9.026;2023-10-31T13:45:49;16.50;69.10
15298;DHT22;7750;48.796;9.026;2023-10-31T13:50:50;16.50;68.90
15298;DHT22;7750;48.796;9.026;2023-10-31T13:55:51;16.50;69.30
15298;DHT22;7750;48.796;9.026;2023-10-31T14:00:54;16.60;69.20
15298;DHT22;7750;48.796;9.026;2023-10-31T14:05:55;16.60;69.10
15298;DHT22;7750;48.796;9.026;2023-10-31T14:10:57;16.70;68.30
15298;DHT22;7750;48.796;9.026;2023-10-31T14:15:57;16.70;68.20
15298;DHT22;7750;48.796;9.026;2023-10-31T14:20:58;16.70;68.10
15298;DHT22;7750;48.796;9.026;2023-10-31T14:25:58;16.70;67.90
15298;DHT22;7750;48.796;9.026;2023-10-31T14:30:59;16.60;67.50
15298;DHT22;7750;48.796;9.026;2023-10-31T14:36:00;16.60;67.50
15298;DHT22;7750;48.796;9.026;2023-10-31T14:41:00;16.50;68.10
15298;DHT22;7750;48.796;9.026;2023-10-31T14:46:01;16.50;69.70
15298;DHT22;7750;48.796;9.026;2023-10-31T14:51:03;16.50;69.90
15298;DHT22;7750;48.796;9.026;2023-10-31T14:56:06;16.40;70.10
15298;DHT22;7750;48.796;9.026;2023-10-31T15:01:06;16.30;70.00
15298;DHT22;7750;48.796;9.026;2023-10-31T15:06:07;16.30;70.30
15298;DHT22;7750;48.796;9.026;2023-10-31T15:11:08;16.20;70.50
15298;DHT22;7750;48.796;9.026;2023-10-31T15:16:08;16.10;70.60
15298;DHT22;7750;48.796;9.026;2023-10-31T15:21:09;16.10;70.90
15298;DHT22;7750;48.796;9.026;2023-10-31T15:26:10;16.00;71.10
15298;DHT22;7750;48.796;9.026;2023-10-31T15:31:13;16.00;71.30
15298;DHT22;7750;48.796;9.026;2023-10-31T15:36:13;16.00;71.50
15298;DHT22;7750;48.796;9.026;2023-10-31T15:41:14;16.00;71.90
15298;DHT22;7750;48.796;9.026;2023-10-31T15:46:15;16.00;72.10
15298;DHT22;7750;48.796;9.026;2023-10-31T15:51:15;16.00;71.70
15298;DHT22;7750;48.796;9.026;2023-10-31T15:56:17;16.10;71.10
15298;DHT22;7750;48.796;9.026;2023-10-31T16:01:18;16.10;71.00
15298;DHT22;7750;48.796;9.026;2023-10-31T16:06:18;16.10;70.60
15298;DHT22;7750;48.796;9.026;2023-10-31T16:11:19;16.00;70.30
15298;DHT22;7750;48.796;9.026;2023-10-31T16:16:20;15.90;70.60
15298;DHT22;7750;48.796;9.026;2023-10-31T16:21:21;15.80;70.80
15298;DHT22;7750;48.796;9.026;2023-10-31T16:26:22;15.80;71.00
15298;DHT22;7750;48.796;9.026;2023-10-31T16:31:23;15.70;71.60
15298;DHT22;7750;48.796;9.026;2023-10-31T16:36:24;15.70;71.20
15298;DHT22;7750;48.796;9.026;2023-10-31T16:41:25;15.60;71.40
15298;DHT22;7750;48.796;9.026;2023-10-31T16:46:26;15.50;71.70
15298;DHT22;7750;48.796;9.026;2023-10-31T16:51:27;15.50;71.90
15298;DHT22;7750;48.796;9.026;2023-10-31T16:56:29;15.50;72.00
15298;DHT22;7750;48.796;9.026;2023-10-31T17:01:29;15.40;72.20
15298;DHT22;7750;48.796;9.026;2023-10-31T17:06:30;15.40;72.40
15298;DHT22;7750;48.796;9.026;2023-10-31T17:11:33;15.30;72.50
15298;DHT22;7750;48.796;9.026;2023-10-31T17:16:37;15.30;72.80
15298;DHT22;7750;48.796;9.026;2023-10-31T17:22:01;15.30;73.00
15298;DHT22;7750;48.796;9.026;2023-10-31T17:27:02;15.20;73.10
15298;DHT22;7750;48.796;9.026;2023-10-31T17:32:03;15.90;72.60
15298;DHT22;7750;48.796;9.026;2023-10-31T17:37:04;15.50;72.60
15298;DHT22;7750;48.796;9.026;2023-10-31T17:42:04;15.40;72.80
15298;DHT22;7750;48.796;9.026;2023-10-31T17:47:06;15.20;72.90
15298;DHT22;7750;48.796;9.026;2023-10-31T17:52:07;15.10;73.20
15298;DHT22;7750;48.796;9.026;2023-10-31T17:57:08;15.00;73.40
15298;DHT22;7750;48.796;9.026;2023-10-31T18:02:08;14.90;73.70
15298;DHT22;7750;48.796;9.026;2023-10-31T18:07:09;14.90;74.00
15298;DHT22;7750;48.796;9.026;2023-10-31T18:12:09;14.80;74.40
15298;DHT22;7750;48.796;9.026;2023-10-31T18:17:12;14.70;75.20
15298;DHT22;7750;48.796;9.026;2023-10-31T18:22:13;14.70;74.90
15298;DHT22;7750;48.796;9.026;2023-10-31T18:27:14;14.70;75.10
15298;DHT22;7750;48.796;9.026;2023-10-31T18:32:15;14.60;75.10
15298;DHT22;7750;48.796;9.026;2023-10-31T18:37:17;14.60;75.10
15298;DHT22;7750;48.796;9.026;2023-10-31T18:42:18;14.60;75.20
15298;DHT22;7750;48.796;9.026;2023-10-31T18:47:18;14.50;75.40
15298;DHT22;7750;48.796;9.026;2023-10-31T18:52:19;14.40;75.60
15298;DHT22;7750;48.796;9.026;2023-10-31T18:57:20;14.40;75.90
15298;DHT22;7750;48.796;9.026;2023-10-31T19:02:22;14.40;76.20
15298;DHT22;7750;48.796;9.026;2023-10-31T19:07:23;14.40;76.20
15298;DHT22;7750;48.796;9.026;2023-10-31T19:12:23;14.50;76.20
15298;DHT22;7750;48.796;9.026;2023-10-31T19:17:24;14.50;76.30
15298;DHT22;7750;48.796;9.026;2023-10-31T19:22:24;14.50;76.40
15298;DHT22;7750;48.796;9.026;2023-10-31T19:27:25;14.50;76.30
15298;DHT22;7750;48.796;9.026;2023-10-31T19:32:26;14.60;77.10
15298;DHT22;7750;48.796;9.026;2023-10-31T19:37:27;14.50;76.40
15298;DHT22;7750;48.796;9.026;2023-10-31T19:42:27;14.60;76.50
15298;DHT22;7750;48.796;9.026;2023-10-31T19:47:28;14.60;76.40
15298;DHT22;7750;48.796;9.026;2023-10-31T19:52:28;14.60;76.50
15298;DHT22;7750;48.796;9.026;2023-10-31T19:57:29;14.60;76.50
15298;DHT22;7750;48.796;9.026;2023-10-31T20:02:30;14.60;76.60
15298;DHT22;7750;48.796;9.026;2023-10-31T20:07:30;14.60;76.80
15298;DHT22;7750;48.796;9.026;2023-10-31T20:12:31;14.60;76.60
15298;DHT22;7750;48.796;9.026;2023-10-31T20:17:31;14.60;76.60
15298;DHT22;7750;48.796;9.026;2023-10-31T20:22:34;14.50;76.70
15298;DHT22;7750;48.796;9.026;2023-10-31T20:27:34;14.50;76.80
15298;DHT22;7750;48.796;9.026;2023-10-31T20:32:35;14.50;76.70
15298;DHT22;7750;48.796;9.026;2023-10-31T20:37:39;14.50;77.40
15298;DHT22;7750;48.796;9.026;2023-10-31T20:42:39;14.50;76.50
15298;DHT22;7750;48.796;9.026;2023-10-31T20:47:40;14.50;76.70
15298;DHT22;7750;48.796;9.026;2023-10-31T20:52:41;14.50;76.50
15298;DHT22;7750;48.796;9.026;2023-10-31T20:57:41;14.40;76.80
15298;DHT22;7750;48.796;9.026;2023-10-31T21:02:42;14.40;76.80
15298;DHT22;7750;48.796;9.026;2023-10-31T21:07:44;14.40;77.70
15298;DHT22;7750;48.796;9.026;2023-10-31T21:12:44;14.30;76.90
15298;DHT22;7750;48.796;9.026;2023-10-31T21:17:45;14.30;76.90
15298;DHT22;7750;48.796;9.026;2023-10-31T21:22:46;14.30;76.90
15298;DHT22;7750;48.796;9.026;2023-10-31T21:27:46;14.30;77.10
15298;DHT22;7750;48.796;9.026;2023-10-31T21:32:49;14.20;77.10
15298;DHT22;7750;48.796;9.026;2023-10-31T21:37:49;14.20;76.90
15298;DHT22;7750;48.796;9.026;2023-10-31T21:42:50;14.20;76.90
15298;DHT22;7750;48.796;9.026;2023-10-31T21:47:51;14.20;76.90
15298;DHT22;7750;48.796;9.026;2023-10-31T21:52:51;14.20;76.90
15298;DHT22;7750;48.796;9.026;2023-10-31T21:57:52;14.20;76.80
15298;DHT22;7750;48.796;9.026;2023-10-31T22:02:53;14.10;76.80
15298;DHT22;7750;48.796;9.026;2023-10-31T22:07:54;14.10;76.90
15298;DHT22;7750;48.796;9.026;2023-10-31T22:12:54;14.10;76.90
15298;DHT22;7750;48.796;9.026;2023-10-31T22:17:55;14.10;77.50
15298;DHT22;7750;48.796;9.026;2023-10-31T22:22:55;14.00;76.80
15298;DHT22;7750;48.796;9.026;2023-10-31T22:27:56;14.00;76.80
15298;DHT22;7750;48.796;9.026;2023-10-31T22:32:56;14.00;76.90
15298;DHT22;7750;48.796;9.026;2023-10-31T22:37:57;14.00;77.00
15298;DHT22;7750;48.796;9.026;2023-10-31T22:42:58;13.90;77.10
15298;DHT22;7750;48.796;9.026;2023-10-31T22:47:58;13.90;77.20
15298;DHT22;7750;48.796;9.026;2023-10-31T22:52:59;13.90;77.20
15298;DHT22;7750;48.796;9.026;2023-10-31T22:57:59;13.90;77.20
15298;DHT22;7750;48.796;9.026;2023-10-31T23:03:00;13.90;77.30
15298;DHT22;7750;48.796;9.026;2023-10-31T23:08:01;13.90;77.30
15298;DHT22;7750;48.796;9.026;2023-10-31T23:13:02;13.90;77.40
15298;DHT22;7750;48.796;9.026;2023-10-31T23:18:04;13.90;77.30
15298;DHT22;7750;48.796;9.026;2023-10-31T23:23:05;13.90;77.40
15298;DHT22;7750;48.796;9.026;2023-10-31T23:28:06;13.90;77.30
15298;DHT22;7750;48.796;9.026;2023-10-31T23:33:07;14.00;77.40
15298;DHT22;7750;48.796;9.026;2023-10-31T23:38:07;14.00;77.30
15298;DHT22;7750;48.796;9.026;2023-10-31T23:43:08;14.00;77.90
15298;DHT22;7750;48.796;9.026;2023-10-31T23:48:09;14.00;77.40
15298;DHT22;7750;48.796;9.026;2023-10-31T23:53:09;14.00;77.40
15298;DHT22;7750;48.796;9.026;2023-10-31T23:58:10;14.00;77.60
